Time;durP1;ratioP1;P1;durP2;ratioP2;P2;SDS_P1;SDS_P2;PMS_P1;PMS_P2;Temp;Humidity;BMP_temperature;BMP_pressure;BME280_temperature;BME280_humidity;BME280_pressure;Samples;Min_cycle;Max_cycle;Signal;HPM_P1;HPM_P2
2021/12/21 00:00:22;;;;;;;;;;;;;;;;;;4980310;28;20260;-68
2021/12/21 00:02:48;;;;;;;;;;;;;;;;;;4979946;28;19925;-67
2021/12/21 00:05:19;;;;;;;;;;;;;;;;;;4987067;28;20282;-68
2021/12/21 00:07:44;;;;;;;;;;;;;;;;;;4979953;28;19918;-68
2021/12/21 00:10:10;;;;;;;;;;;;;;;;;;4986272;28;19925;-68
2021/12/21 00:12:37;;;;;;;;;;;;;;;;;;4978492;28;20496;-68
2021/12/21 00:15:06;;;;;;;;;;;;;;;;;;4980667;28;19917;-67
2021/12/21 00:17:58;;;;;;;;;;;;;;;;;;4986426;28;19918;-68
2021/12/21 00:25:17;;;;;;;;;;;;;;;;;;4986303;28;19924;-67
2021/12/21 00:27:44;;;;;;;;;;;;;;;;;;4979910;28;19918;-68
2021/12/21 00:30:10;;;;;;;;;;;;;;;;;;5002169;28;19933;-68
2021/12/21 00:32:35;;;;;;;;;;;;;;;;;;4978898;28;19922;-67
2021/12/21 00:35:00;;;;;;;;;;;;;;;;;;4980399;28;19952;-67
2021/12/21 00:37:27;;;;;;;;;;;;;;;;;;4986249;28;20324;-68
2021/12/21 00:39:53;;;;;;;;;;;;;;;;;;4980693;28;20304;-68
2021/12/21 00:42:18;;;;;;;;;;;;;;;;;;4986229;28;19997;-68
2021/12/21 00:44:43;;;;;;;;;;;;;;;;;;4977631;28;19920;-68
2021/12/21 00:47:08;;;;;;;;;;;;;;;;;;4979342;28;19922;-68
2021/12/21 00:49:35;;;;;;;;;;;;;;;;;;4986948;28;20217;-67
2021/12/21 00:52:00;;;;;;;;;;;;;;;;;;4979718;28;19933;-65
2021/12/21 00:54:26;;;;;;;;;;;;;;;;;;4983833;28;20379;-67
2021/12/21 00:56:51;;;;;;;;;;;;;;;;;;4980266;28;19917;-68
2021/12/21 00:59:16;;;;;;;;;;;;;;;;;;4978136;28;19969;-68
2021/12/21 01:01:42;;;;;;;;;;;;;;;;;;4980489;28;20543;-68
2021/12/21 01:04:13;;;;;;;;;;;;;;;;;;4992367;28;19945;-67
2021/12/21 01:06:42;;;;;;;;;;;;;;;;;;4985950;28;19964;-67
2021/12/21 01:11:41;;;;;;;;;;;;;;;;;;4977246;28;19921;-68
2021/12/21 01:14:38;;;;;;;;;;;;;;;;;;4981563;28;19943;-68
2021/12/21 01:19:43;;;;;;;;;;;;;;;;;;4978847;28;20319;-67
2021/12/21 01:22:37;;;;;;;;;;;;;;;;;;4984807;28;19918;-67
2021/12/21 01:25:22;;;;;;;;;;;;;;;;;;4980374;28;19918;-67
2021/12/21 01:30:35;;;;;;;;;;;;;;;;;;4984372;28;19928;-67
2021/12/21 01:33:44;;;;;;;;;;;;;;;;;;4977657;28;19926;-67
2021/12/21 01:35:53;;;;;;;;;;;;;;;;;;4975457;28;19980;-67
2021/12/21 01:40:57;;;;;;;;;;;;;;;;;;4977941;28;19917;-67
2021/12/21 01:43:41;;;;;;;;;;;;;;;;;;4979088;28;19917;-68
2021/12/21 01:51:36;;;;;;;;;;;;;;;;;;4976719;28;19925;-68
2021/12/21 01:54:01;;;;;;;;;;;;;;;;;;4984815;28;19918;-68
2021/12/21 01:56:26;;;;;;;;;;;;;;;;;;4978826;28;20152;-68
2021/12/21 01:58:51;;;;;;;;;;;;;;;;;;4982454;28;19953;-67
2021/12/21 02:01:16;;;;;;;;;;;;;;;;;;4974389;28;19971;-67
2021/12/21 02:03:47;;;;;;;;;;;;;;;;;;4982822;28;20016;-67
2021/12/21 02:06:12;;;;;;;;;;;;;;;;;;4984198;28;20382;-67
2021/12/21 02:08:37;;;;;;;;;;;;;;;;;;4977748;28;19944;-67
2021/12/21 02:11:04;;;;;;;;;;;;;;;;;;4982372;28;20000;-67
2021/12/21 02:13:32;;;;;;;;;;;;;;;;;;4978618;28;19922;-67
2021/12/21 02:15:57;;;;;;;;;;;;;;;;;;4980147;28;20045;-67
2021/12/21 02:18:45;;;;;;;;;;;;;;;;;;4985003;28;19933;-67
2021/12/21 02:21:22;;;;;;;;;;;;;;;;;;4978667;28;19925;-67
2021/12/21 02:23:49;;;;;;;;;;;;;;;;;;4979110;28;20012;-68
2021/12/21 02:31:08;;;;;;;;;;;;;;;;;;4982762;28;19929;-68
2021/12/21 02:33:34;;;;;;;;;;;;;;;;;;4978680;28;20079;-67
2021/12/21 02:36:00;;;;;;;;;;;;;;;;;;4983151;28;20137;-67
2021/12/21 02:38:25;;;;;;;;;;;;;;;;;;4984946;28;20342;-67
2021/12/21 02:40:50;;;;;;;;;;;;;;;;;;4976722;28;19918;-67
2021/12/21 02:43:16;;;;;;;;;;;;;;;;;;4984484;28;19920;-67
2021/12/21 02:45:41;;;;;;;;;;;;;;;;;;4975590;28;19925;-67
2021/12/21 02:48:06;;;;;;;;;;;;;;;;;;4978159;28;20309;-67
2021/12/21 02:50:31;;;;;;;;;;;;;;;;;;4980386;28;20294;-67
2021/12/21 02:52:59;;;;;;;;;;;;;;;;;;4976671;28;19929;-67
2021/12/21 02:55:24;;;;;;;;;;;;;;;;;;4997820;28;20108;-67
2021/12/21 02:57:50;;;;;;;;;;;;;;;;;;4977036;28;20008;-67
2021/12/21 03:00:15;;;;;;;;;;;;;;;;;;4973795;28;20457;-67
2021/12/21 03:02:40;;;;;;;;;;;;;;;;;;4978685;28;20471;-67
2021/12/21 03:05:05;;;;;;;;;;;;;;;;;;4977014;28;19917;-67
2021/12/21 03:10:02;;;;;;;;;;;;;;;;;;4978101;28;20236;-68
2021/12/21 03:13:52;;;;;;;;;;;;;;;;;;4976756;28;19928;-67
2021/12/21 03:15:12;;;;;;;;;;;;;;;;;;4982763;28;19918;-67
2021/12/21 03:17:37;;;;;;;;;;;;;;;;;;4976293;28;20406;-68
2021/12/21 03:20:02;;;;;;;;;;;;;;;;;;4978050;28;20474;-68
2021/12/21 03:22:28;;;;;;;;;;;;;;;;;;4982542;28;20134;-67
2021/12/21 03:24:53;;;;;;;;;;;;;;;;;;4975225;28;20429;-67
2021/12/21 03:27:18;;;;;;;;;;;;;;;;;;4983744;28;20750;-67
2021/12/21 03:29:44;;;;;;;;;;;;;;;;;;4974728;28;19973;-67
2021/12/21 03:32:09;;;;;;;;;;;;;;;;;;4976394;28;20323;-67
2021/12/21 03:34:34;;;;;;;;;;;;;;;;;;4983503;28;20608;-68
2021/12/21 03:36:59;;;;;;;;;;;;;;;;;;4977322;28;19945;-67
2021/12/21 03:39:24;;;;;;;;;;;;;;;;;;4983273;28;20036;-67
2021/12/21 03:41:50;;;;;;;;;;;;;;;;;;4975594;28;19996;-68
2021/12/21 03:44:16;;;;;;;;;;;;;;;;;;4976626;28;19918;-67
2021/12/21 03:46:46;;;;;;;;;;;;;;;;;;4983559;28;19928;-67
2021/12/21 03:51:55;;;;;;;;;;;;;;;;;;4982140;28;19921;-67
2021/12/21 03:54:21;;;;;;;;;;;;;;;;;;4975325;28;19918;-68
2021/12/21 03:56:49;;;;;;;;;;;;;;;;;;4978286;28;19918;-67
2021/12/21 03:59:14;;;;;;;;;;;;;;;;;;4982097;28;20745;-68
2021/12/21 04:01:39;;;;;;;;;;;;;;;;;;4979551;28;20069;-67
2021/12/21 04:04:05;;;;;;;;;;;;;;;;;;4986691;28;20004;-67
2021/12/21 04:06:30;;;;;;;;;;;;;;;;;;4975453;28;20561;-67
2021/12/21 04:08:55;;;;;;;;;;;;;;;;;;4977088;28;20216;-67
2021/12/21 04:11:20;;;;;;;;;;;;;;;;;;4982071;28;19929;-67
2021/12/21 04:13:46;;;;;;;;;;;;;;;;;;4976349;28;19922;-67
2021/12/21 04:16:11;;;;;;;;;;;;;;;;;;4982627;28;20385;-69
2021/12/21 04:18:38;;;;;;;;;;;;;;;;;;4974995;28;20306;-68
2021/12/21 04:21:03;;;;;;;;;;;;;;;;;;4974458;28;19929;-68
2021/12/21 04:23:29;;;;;;;;;;;;;;;;;;4982363;28;20307;-68
2021/12/21 04:25:54;;;;;;;;;;;;;;;;;;4975489;28;19918;-68
2021/12/21 04:28:19;;;;;;;;;;;;;;;;;;4981305;28;20215;-68
2021/12/21 04:30:44;;;;;;;;;;;;;;;;;;4978473;28;20013;-68
2021/12/21 04:33:09;;;;;;;;;;;;;;;;;;4957470;28;19937;-68
2021/12/21 04:35:35;;;;;;;;;;;;;;;;;;4984961;28;19972;-68
2021/12/21 04:38:13;;;;;;;;;;;;;;;;;;4977392;28;19917;-68
2021/12/21 04:40:42;;;;;;;;;;;;;;;;;;4995770;28;19921;-68
2021/12/21 04:43:07;;;;;;;;;;;;;;;;;;4986573;28;19925;-68
2021/12/21 04:45:33;;;;;;;;;;;;;;;;;;4980000;28;19918;-68
2021/12/21 04:47:58;;;;;;;;;;;;;;;;;;4987134;28;19933;-69
2021/12/21 04:50:23;;;;;;;;;;;;;;;;;;4979510;28;20413;-69
2021/12/21 04:52:48;;;;;;;;;;;;;;;;;;4978767;28;19921;-68
2021/12/21 04:55:13;;;;;;;;;;;;;;;;;;4985920;28;19983;-68
2021/12/21 04:57:40;;;;;;;;;;;;;;;;;;4980747;28;20060;-68
2021/12/21 05:00:06;;;;;;;;;;;;;;;;;;4982537;28;20008;-68
2021/12/21 05:02:31;;;;;;;;;;;;;;;;;;4993898;28;19972;-69
2021/12/21 05:04:57;;;;;;;;;;;;;;;;;;4991292;28;20337;-68
2021/12/21 05:07:24;;;;;;;;;;;;;;;;;;4984260;28;20421;-68
2021/12/21 05:09:56;;;;;;;;;;;;;;;;;;4977159;28;20484;-68
2021/12/21 05:12:21;;;;;;;;;;;;;;;;;;4985328;28;19925;-68
2021/12/21 05:14:46;;;;;;;;;;;;;;;;;;4980310;28;20583;-70
2021/12/21 05:17:11;;;;;;;;;;;;;;;;;;4995244;28;20395;-70
2021/12/21 05:19:36;;;;;;;;;;;;;;;;;;4984694;28;19925;-69
2021/12/21 05:22:02;;;;;;;;;;;;;;;;;;4978801;28;19917;-70
2021/12/21 05:24:27;;;;;;;;;;;;;;;;;;4983331;28;19925;-69
2021/12/21 05:26:52;;;;;;;;;;;;;;;;;;4978984;28;20374;-69
2021/12/21 05:29:17;;;;;;;;;;;;;;;;;;4978028;28;19972;-69
2021/12/21 05:31:43;;;;;;;;;;;;;;;;;;4985424;28;19924;-69
2021/12/21 05:34:08;;;;;;;;;;;;;;;;;;4975695;28;19929;-67
2021/12/21 05:36:33;;;;;;;;;;;;;;;;;;4984275;28;19924;-69
2021/12/21 05:39:03;;;;;;;;;;;;;;;;;;4978137;28;19952;-69
2021/12/21 05:41:39;;;;;;;;;;;;;;;;;;4977599;28;19913;-68
2021/12/21 05:44:04;;;;;;;;;;;;;;;;;;4999878;28;20329;-67
2021/12/21 05:46:29;;;;;;;;;;;;;;;;;;4978896;28;19948;-68
2021/12/21 05:48:55;;;;;;;;;;;;;;;;;;4983386;28;19972;-68
2021/12/21 05:51:20;;;;;;;;;;;;;;;;;;4978760;28;19925;-68
2021/12/21 05:53:45;;;;;;;;;;;;;;;;;;4976606;28;19922;-68
2021/12/21 05:56:11;;;;;;;;;;;;;;;;;;4985498;28;19921;-68
2021/12/21 05:58:36;;;;;;;;;;;;;;;;;;4998222;28;19922;-68
2021/12/21 06:01:02;;;;;;;;;;;;;;;;;;4983069;28;19918;-68
2021/12/21 06:03:27;;;;;;;;;;;;;;;;;;4979573;28;20355;-68
2021/12/21 06:05:53;;;;;;;;;;;;;;;;;;4975713;28;19918;-68
2021/12/21 06:08:21;;;;;;;;;;;;;;;;;;4983689;28;19924;-67
2021/12/21 06:10:49;;;;;;;;;;;;;;;;;;4977033;28;19926;-67
2021/12/21 06:14:09;;;;;;;;;;;;;;;;;;4976737;28;20020;-68
2021/12/21 06:26:44;;;;;;;;;;;;;;;;;;4969231;28;19918;-70
2021/12/21 06:29:09;;;;;;;;;;;;;;;;;;4984900;28;19968;-69
2021/12/21 06:31:34;;;;;;;;;;;;;;;;;;4974926;28;20116;-68
2021/12/21 06:34:00;;;;;;;;;;;;;;;;;;4978016;28;19949;-68
2021/12/21 06:36:25;;;;;;;;;;;;;;;;;;4986870;28;20081;-68
2021/12/21 06:38:50;;;;;;;;;;;;;;;;;;4974628;28;19922;-69
2021/12/21 06:41:15;;;;;;;;;;;;;;;;;;4984460;28;19917;-69
2021/12/21 06:43:41;;;;;;;;;;;;;;;;;;4977307;28;19933;-70
2021/12/21 06:46:19;;;;;;;;;;;;;;;;;;4976328;28;20380;-69
2021/12/21 06:51:37;;;;;;;;;;;;;;;;;;4976791;28;20216;-68
2021/12/21 06:54:02;;;;;;;;;;;;;;;;;;4976609;28;19918;-69
2021/12/21 06:56:28;;;;;;;;;;;;;;;;;;4998232;28;19940;-69
2021/12/21 06:58:55;;;;;;;;;;;;;;;;;;4977181;28;19914;-69
2021/12/21 07:01:20;;;;;;;;;;;;;;;;;;4983325;28;19993;-68
2021/12/21 07:03:45;;;;;;;;;;;;;;;;;;4975610;28;19924;-68
2021/12/21 07:06:10;;;;;;;;;;;;;;;;;;4978204;28;20334;-68
2021/12/21 07:08:45;;;;;;;;;;;;;;;;;;4980243;28;19922;-67
2021/12/21 07:19:07;;;;;;;;;;;;;;;;;;4976406;28;20615;-69
2021/12/21 07:21:32;;;;;;;;;;;;;;;;;;4982232;28;20270;-69
2021/12/21 07:23:57;;;;;;;;;;;;;;;;;;4976884;28;20392;-69
2021/12/21 07:26:22;;;;;;;;;;;;;;;;;;4977464;28;19924;-69
2021/12/21 07:28:48;;;;;;;;;;;;;;;;;;4981560;28;20552;-69
2021/12/21 07:31:13;;;;;;;;;;;;;;;;;;4977750;28;19968;-69
2021/12/21 07:33:38;;;;;;;;;;;;;;;;;;4984142;28;19918;-69
2021/12/21 07:36:03;;;;;;;;;;;;;;;;;;4967689;28;20503;-70
2021/12/21 07:38:30;;;;;;;;;;;;;;;;;;4971547;28;20314;-70
2021/12/21 07:40:55;;;;;;;;;;;;;;;;;;4975127;28;19934;-70
2021/12/21 07:43:20;;;;;;;;;;;;;;;;;;4973474;28;19928;-70
2021/12/21 07:45:46;;;;;;;;;;;;;;;;;;4981850;28;19918;-70
2021/12/21 07:48:11;;;;;;;;;;;;;;;;;;4963835;28;20356;-70
2021/12/21 07:50:36;;;;;;;;;;;;;;;;;;4970274;28;19996;-69
2021/12/21 07:53:01;;;;;;;;;;;;;;;;;;4978826;28;20112;-70
2021/12/21 07:55:27;;;;;;;;;;;;;;;;;;4974757;28;19928;-71
2021/12/21 07:57:52;;;;;;;;;;;;;;;;;;4979916;28;19910;-70
2021/12/21 08:00:18;;;;;;;;;;;;;;;;;;4976139;28;19945;-70
2021/12/21 08:02:43;;;;;;;;;;;;;;;;;;4973080;28;20454;-70
2021/12/21 08:05:08;;;;;;;;;;;;;;;;;;4978049;28;19922;-71
2021/12/21 08:07:38;;;;;;;;;;;;;;;;;;4975744;28;20329;-71
2021/12/21 08:10:18;;;;;;;;;;;;;;;;;;4980090;28;19922;-70
2021/12/21 08:12:43;;;;;;;;;;;;;;;;;;4980932;28;20067;-70
2021/12/21 08:15:08;;;;;;;;;;;;;;;;;;4975566;28;19930;-70
2021/12/21 08:17:33;;;;;;;;;;;;;;;;;;4982751;28;19928;-70
2021/12/21 08:19:58;;;;;;;;;;;;;;;;;;4964786;28;19918;-70
2021/12/21 08:22:24;;;;;;;;;;;;;;;;;;4990864;28;20077;-70
2021/12/21 08:24:49;;;;;;;;;;;;;;;;;;4979790;28;19924;-69
2021/12/21 08:27:14;;;;;;;;;;;;;;;;;;4977497;28;19918;-69
2021/12/21 08:29:39;;;;;;;;;;;;;;;;;;4984289;28;19968;-70
2021/12/21 08:32:05;;;;;;;;;;;;;;;;;;4978715;28;19966;-68
2021/12/21 08:34:30;;;;;;;;;;;;;;;;;;4975512;28;20375;-69
2021/12/21 08:36:55;;;;;;;;;;;;;;;;;;4982943;28;19918;-70
2021/12/21 08:39:23;;;;;;;;;;;;;;;;;;4982706;28;20182;-69
2021/12/21 08:41:51;;;;;;;;;;;;;;;;;;4973987;28;19917;-68
2021/12/21 08:44:21;;;;;;;;;;;;;;;;;;4974511;28;19953;-68
2021/12/21 08:46:46;;;;;;;;;;;;;;;;;;4974841;28;20390;-68
2021/12/21 08:49:11;;;;;;;;;;;;;;;;;;4997824;28;20024;-68
2021/12/21 08:51:36;;;;;;;;;;;;;;;;;;4976637;28;19971;-68
2021/12/21 08:54:02;;;;;;;;;;;;;;;;;;4982619;28;19941;-69
2021/12/21 08:56:27;;;;;;;;;;;;;;;;;;4992911;28;19917;-69
2021/12/21 08:58:52;;;;;;;;;;;;;;;;;;4978189;28;20574;-68
2021/12/21 09:01:17;;;;;;;;;;;;;;;;;;4983830;28;20450;-68
2021/12/21 09:03:43;;;;;;;;;;;;;;;;;;4991813;28;20607;-69
2021/12/21 09:06:08;;;;;;;;;;;;;;;;;;4983102;28;20374;-68
2021/12/21 09:08:34;;;;;;;;;;;;;;;;;;4975896;28;20467;-68
2021/12/21 09:11:03;;;;;;;;;;;;;;;;;;4975969;28;19951;-68
2021/12/21 09:13:29;;;;;;;;;;;;;;;;;;4980499;28;19917;-68
2021/12/21 09:15:54;;;;;;;;;;;;;;;;;;4977280;28;19924;-69
2021/12/21 09:18:19;;;;;;;;;;;;;;;;;;4998632;28;19918;-69
2021/12/21 09:20:44;;;;;;;;;;;;;;;;;;4992030;28;19964;-67
2021/12/21 09:23:10;;;;;;;;;;;;;;;;;;4978325;28;19918;-68
2021/12/21 09:25:35;;;;;;;;;;;;;;;;;;4979764;28;19921;-68
2021/12/21 09:28:00;;;;;;;;;;;;;;;;;;4977488;28;19918;-70
2021/12/21 09:30:25;;;;;;;;;;;;;;;;;;4982702;28;19957;-68
2021/12/21 09:32:54;;;;;;;;;;;;;;;;;;4996012;28;20004;-70
2021/12/21 09:35:19;;;;;;;;;;;;;;;;;;4976621;28;20401;-71
2021/12/21 09:37:44;;;;;;;;;;;;;;;;;;4981152;28;19922;-70
2021/12/21 09:40:10;;;;;;;;;;;;;;;;;;4959178;28;20032;-70
2021/12/21 09:42:35;;;;;;;;;;;;;;;;;;4980180;28;19918;-69
2021/12/21 09:45:00;;;;;;;;;;;;;;;;;;4975021;28;19913;-71
2021/12/21 09:47:26;;;;;;;;;;;;;;;;;;4973449;28;19972;-72
2021/12/21 09:49:51;;;;;;;;;;;;;;;;;;4980042;28;19929;-70
2021/12/21 09:52:18;;;;;;;;;;;;;;;;;;4976386;28;19926;-68
2021/12/21 09:54:43;;;;;;;;;;;;;;;;;;4981908;28;20020;-69
2021/12/21 09:57:08;;;;;;;;;;;;;;;;;;4976697;28;20603;-70
2021/12/21 09:59:34;;;;;;;;;;;;;;;;;;4974853;28;19917;-70
2021/12/21 10:01:59;;;;;;;;;;;;;;;;;;4981747;28;19924;-68
2021/12/21 10:04:24;;;;;;;;;;;;;;;;;;4979397;28;19972;-69
2021/12/21 10:06:50;;;;;;;;;;;;;;;;;;4983246;28;19922;-69
2021/12/21 10:09:15;;;;;;;;;;;;;;;;;;4961228;28;19922;-69
2021/12/21 10:11:40;;;;;;;;;;;;;;;;;;4972014;28;19926;-70
2021/12/21 10:14:06;;;;;;;;;;;;;;;;;;4992693;28;20008;-70
2021/12/21 10:16:31;;;;;;;;;;;;;;;;;;4975652;28;19918;-69
2021/12/21 10:18:56;;;;;;;;;;;;;;;;;;4979952;28;20334;-69
2021/12/21 10:21:21;;;;;;;;;;;;;;;;;;4976129;28;19937;-69
2021/12/21 10:23:46;;;;;;;;;;;;;;;;;;4974588;28;19929;-68
2021/12/21 10:26:12;;;;;;;;;;;;;;;;;;4979428;28;20004;-69
2021/12/21 10:28:37;;;;;;;;;;;;;;;;;;4974665;28;19973;-69
2021/12/21 10:31:02;;;;;;;;;;;;;;;;;;4981347;28;19922;-69
2021/12/21 10:33:27;;;;;;;;;;;;;;;;;;4975723;28;19967;-69
2021/12/21 10:35:53;;;;;;;;;;;;;;;;;;4974189;28;19971;-69
2021/12/21 10:38:18;;;;;;;;;;;;;;;;;;4979099;28;20443;-69
2021/12/21 10:40:44;;;;;;;;;;;;;;;;;;4976450;28;19925;-69
2021/12/21 10:43:10;;;;;;;;;;;;;;;;;;4995771;28;19922;-69
2021/12/21 10:45:35;;;;;;;;;;;;;;;;;;4974671;28;19913;-69
2021/12/21 10:48:00;;;;;;;;;;;;;;;;;;4986964;28;20406;-69
2021/12/21 10:50:26;;;;;;;;;;;;;;;;;;4982310;28;19921;-70
2021/12/21 10:52:52;;;;;;;;;;;;;;;;;;4974819;28;19926;-69
2021/12/21 10:55:17;;;;;;;;;;;;;;;;;;4985448;28;20629;-69
2021/12/21 10:57:42;;;;;;;;;;;;;;;;;;4973069;28;19918;-69
2021/12/21 11:00:07;;;;;;;;;;;;;;;;;;4975529;28;19976;-68
2021/12/21 11:02:34;;;;;;;;;;;;;;;;;;4974721;28;19949;-68
2021/12/21 11:05:00;;;;;;;;;;;;;;;;;;4974693;28;20405;-68
2021/12/21 11:07:42;;;;;;;;;;;;;;;;;;4979786;28;19925;-69
2021/12/21 11:10:12;;;;;;;;;;;;;;;;;;4980690;28;19921;-70
2021/12/21 11:12:37;;;;;;;;;;;;;;;;;;4975963;28;19926;-69
2021/12/21 11:15:03;;;;;;;;;;;;;;;;;;4980392;28;20287;-69
2021/12/21 11:17:28;;;;;;;;;;;;;;;;;;4975492;28;20414;-69
2021/12/21 11:19:53;;;;;;;;;;;;;;;;;;4975618;28;19917;-70
2021/12/21 11:22:18;;;;;;;;;;;;;;;;;;4980703;28;19925;-69
2021/12/21 11:24:44;;;;;;;;;;;;;;;;;;4974743;28;20020;-69
2021/12/21 11:27:10;;;;;;;;;;;;;;;;;;4980290;28;19922;-70
2021/12/21 11:29:35;;;;;;;;;;;;;;;;;;4971954;28;19918;-69
2021/12/21 11:32:00;;;;;;;;;;;;;;;;;;4974401;28;19961;-69
2021/12/21 11:34:31;;;;;;;;;;;;;;;;;;4979608;28;20183;-69
2021/12/21 11:39:41;;;;;;;;;;;;;;;;;;4980839;28;19918;-69
2021/12/21 11:42:07;;;;;;;;;;;;;;;;;;4989036;28;19928;-69
2021/12/21 11:44:32;;;;;;;;;;;;;;;;;;4975622;28;20136;-68
2021/12/21 11:46:58;;;;;;;;;;;;;;;;;;4981114;28;19922;-68
2021/12/21 11:49:23;;;;;;;;;;;;;;;;;;4975932;28;19971;-68
2021/12/21 11:51:48;;;;;;;;;;;;;;;;;;4985516;28;19930;-67
2021/12/21 11:54:14;;;;;;;;;;;;;;;;;;4979436;28;20353;-68
2021/12/21 11:56:39;;;;;;;;;;;;;;;;;;4983342;28;20326;-68
2021/12/21 11:59:04;;;;;;;;;;;;;;;;;;4984131;28;20086;-68
2021/12/21 12:01:29;;;;;;;;;;;;;;;;;;4977969;28;19917;-68
2021/12/21 12:03:54;;;;;;;;;;;;;;;;;;4985589;28;19918;-69
2021/12/21 12:06:20;;;;;;;;;;;;;;;;;;4979427;28;20378;-67
2021/12/21 12:08:45;;;;;;;;;;;;;;;;;;4979363;28;19918;-68
2021/12/21 12:11:10;;;;;;;;;;;;;;;;;;4983672;28;19933;-72
2021/12/21 12:13:37;;;;;;;;;;;;;;;;;;4975602;28;19929;-68
2021/12/21 12:16:02;;;;;;;;;;;;;;;;;;4975127;28;20335;-66
2021/12/21 12:18:27;;;;;;;;;;;;;;;;;;4977589;28;19941;-68
2021/12/21 12:20:52;;;;;;;;;;;;;;;;;;4978736;28;19918;-67
2021/12/21 12:23:19;;;;;;;;;;;;;;;;;;4985388;28;19925;-67
2021/12/21 12:25:44;;;;;;;;;;;;;;;;;;4978350;28;19917;-69
2021/12/21 12:28:10;;;;;;;;;;;;;;;;;;4999893;28;19980;-70
2021/12/21 12:30:35;;;;;;;;;;;;;;;;;;4979759;28;19922;-68
2021/12/21 12:33:01;;;;;;;;;;;;;;;;;;4979708;28;20462;-69
2021/12/21 12:35:27;;;;;;;;;;;;;;;;;;4983368;28;19979;-68
2021/12/21 12:37:52;;;;;;;;;;;;;;;;;;4979442;28;20371;-68
2021/12/21 12:40:18;;;;;;;;;;;;;;;;;;4983579;28;19914;-71
2021/12/21 12:42:43;;;;;;;;;;;;;;;;;;4995193;28;19964;-68
2021/12/21 12:45:09;;;;;;;;;;;;;;;;;;4980041;28;19926;-67
2021/12/21 12:47:35;;;;;;;;;;;;;;;;;;4984503;28;20338;-67
2021/12/21 12:50:00;;;;;;;;;;;;;;;;;;4978067;28;19976;-68
2021/12/21 12:52:28;;;;;;;;;;;;;;;;;;4984939;28;20012;-67
2021/12/21 12:54:53;;;;;;;;;;;;;;;;;;4979131;28;19917;-67
2021/12/21 12:57:18;;;;;;;;;;;;;;;;;;4979629;28;19917;-68
2021/12/21 12:59:44;;;;;;;;;;;;;;;;;;4982545;28;19921;-68
2021/12/21 13:02:10;;;;;;;;;;;;;;;;;;4976543;28;20251;-68
2021/12/21 13:04:35;;;;;;;;;;;;;;;;;;4982760;28;20254;-68
2021/12/21 13:07:00;;;;;;;;;;;;;;;;;;4980932;28;19929;-68
2021/12/21 13:09:25;;;;;;;;;;;;;;;;;;4977308;28;19945;-67
2021/12/21 13:11:51;;;;;;;;;;;;;;;;;;4979651;28;19929;-68
2021/12/21 13:14:16;;;;;;;;;;;;;;;;;;4978004;28;20330;-67
2021/12/21 13:16:41;;;;;;;;;;;;;;;;;;4982254;28;20287;-68
2021/12/21 13:19:07;;;;;;;;;;;;;;;;;;4979031;28;19914;-69
2021/12/21 13:21:40;;;;;;;;;;;;;;;;;;4978012;28;20334;-68
2021/12/21 13:24:05;;;;;;;;;;;;;;;;;;4985804;28;19922;-70
2021/12/21 13:26:30;;;;;;;;;;;;;;;;;;4961465;28;19928;-67
2021/12/21 13:28:56;;;;;;;;;;;;;;;;;;4979305;28;20367;-67
2021/12/21 13:31:21;;;;;;;;;;;;;;;;;;4985724;28;19929;-67
2021/12/21 13:33:47;;;;;;;;;;;;;;;;;;4979789;28;19921;-68
2021/12/21 13:36:12;;;;;;;;;;;;;;;;;;4982785;28;19929;-67
2021/12/21 13:38:37;;;;;;;;;;;;;;;;;;4979671;28;19918;-67
2021/12/21 13:41:02;;;;;;;;;;;;;;;;;;4975935;28;19921;-66
2021/12/21 13:43:28;;;;;;;;;;;;;;;;;;4982154;28;19918;-66
2021/12/21 13:45:53;;;;;;;;;;;;;;;;;;4980378;28;19924;-67
2021/12/21 13:48:18;;;;;;;;;;;;;;;;;;4980382;28;19918;-68
2021/12/21 13:50:43;;;;;;;;;;;;;;;;;;4976026;28;19922;-67
2021/12/21 13:53:08;;;;;;;;;;;;;;;;;;4983153;28;19922;-67
2021/12/21 13:55:36;;;;;;;;;;;;;;;;;;4982405;28;19922;-67
2021/12/21 13:58:04;;;;;;;;;;;;;;;;;;4975627;28;19917;-67
2021/12/21 14:00:29;;;;;;;;;;;;;;;;;;4979841;28;19918;-67
2021/12/21 14:03:14;;;;;;;;;;;;;;;;;;4976998;28;19940;-67
2021/12/21 14:05:44;;;;;;;;;;;;;;;;;;4976537;28;19918;-66
2021/12/21 14:08:09;;;;;;;;;;;;;;;;;;4983619;28;19953;-67
2021/12/21 14:10:34;;;;;;;;;;;;;;;;;;4977977;28;20435;-67
2021/12/21 14:12:59;;;;;;;;;;;;;;;;;;4982334;28;20096;-67
2021/12/21 14:15:25;;;;;;;;;;;;;;;;;;4973224;28;19964;-67
2021/12/21 14:17:50;;;;;;;;;;;;;;;;;;4976254;28;20177;-67
2021/12/21 14:20:15;;;;;;;;;;;;;;;;;;4983341;28;19918;-68
2021/12/21 14:22:40;;;;;;;;;;;;;;;;;;4978319;28;20415;-70
2021/12/21 14:25:05;;;;;;;;;;;;;;;;;;4982464;28;19918;-67
2021/12/21 14:27:31;;;;;;;;;;;;;;;;;;4993169;28;19918;-67
2021/12/21 14:29:56;;;;;;;;;;;;;;;;;;4974690;28;19922;-68
2021/12/21 14:32:27;;;;;;;;;;;;;;;;;;4987727;28;20046;-68
2021/12/21 14:34:54;;;;;;;;;;;;;;;;;;4975804;28;20437;-68
2021/12/21 14:37:19;;;;;;;;;;;;;;;;;;4982740;28;19924;-68
2021/12/21 14:39:46;;;;;;;;;;;;;;;;;;4976243;28;19918;-68
2021/12/21 14:42:11;;;;;;;;;;;;;;;;;;4965658;28;19975;-67
2021/12/21 14:44:36;;;;;;;;;;;;;;;;;;4977903;28;19922;-67
2021/12/21 14:47:02;;;;;;;;;;;;;;;;;;4973136;28;19926;-67
2021/12/21 14:49:27;;;;;;;;;;;;;;;;;;4973169;28;20214;-68
2021/12/21 14:51:52;;;;;;;;;;;;;;;;;;4975832;28;20436;-67
2021/12/21 14:54:25;;;;;;;;;;;;;;;;;;4971638;28;19948;-68
2021/12/21 14:56:50;;;;;;;;;;;;;;;;;;4981436;28;19929;-67
2021/12/21 14:59:15;;;;;;;;;;;;;;;;;;4971297;28;19925;-67
2021/12/21 15:01:41;;;;;;;;;;;;;;;;;;4974121;28;20306;-68
2021/12/21 15:04:06;;;;;;;;;;;;;;;;;;4978034;28;19918;-67
2021/12/21 15:06:31;;;;;;;;;;;;;;;;;;4973655;28;19963;-67
2021/12/21 15:08:57;;;;;;;;;;;;;;;;;;4977749;28;19921;-67
2021/12/21 15:11:22;;;;;;;;;;;;;;;;;;4955314;28;20008;-68
2021/12/21 15:13:47;;;;;;;;;;;;;;;;;;4974337;28;19952;-67
2021/12/21 15:16:12;;;;;;;;;;;;;;;;;;4978333;28;19924;-66
2021/12/21 15:18:37;;;;;;;;;;;;;;;;;;4974070;28;20005;-67
2021/12/21 15:21:03;;;;;;;;;;;;;;;;;;4981305;28;19918;-67
2021/12/21 15:23:28;;;;;;;;;;;;;;;;;;4976834;28;19917;-67
2021/12/21 15:25:54;;;;;;;;;;;;;;;;;;4972442;28;20015;-68
2021/12/21 15:28:20;;;;;;;;;;;;;;;;;;4981168;28;19925;-67
2021/12/21 15:30:45;;;;;;;;;;;;;;;;;;4975015;28;19960;-66
2021/12/21 15:33:11;;;;;;;;;;;;;;;;;;4981688;28;20040;-68
2021/12/21 15:35:36;;;;;;;;;;;;;;;;;;4972096;28;20362;-67
2021/12/21 15:38:01;;;;;;;;;;;;;;;;;;4975105;28;20279;-68
2021/12/21 15:40:26;;;;;;;;;;;;;;;;;;4981163;28;20393;-67
2021/12/21 15:42:52;;;;;;;;;;;;;;;;;;4989518;28;20260;-66
2021/12/21 15:45:17;;;;;;;;;;;;;;;;;;4979346;28;20403;-67
2021/12/21 15:47:42;;;;;;;;;;;;;;;;;;4974902;28;19926;-67
2021/12/21 15:50:07;;;;;;;;;;;;;;;;;;4973330;28;19922;-67
2021/12/21 15:52:33;;;;;;;;;;;;;;;;;;4980060;28;20240;-67
2021/12/21 15:54:58;;;;;;;;;;;;;;;;;;4974291;28;19918;-67
2021/12/21 15:57:23;;;;;;;;;;;;;;;;;;4980644;28;19925;-68
2021/12/21 15:59:49;;;;;;;;;;;;;;;;;;4976511;28;19917;-67
2021/12/21 16:02:18;;;;;;;;;;;;;;;;;;4973670;28;19917;-67
2021/12/21 16:04:44;;;;;;;;;;;;;;;;;;4981947;28;20433;-67
2021/12/21 16:07:09;;;;;;;;;;;;;;;;;;4974964;28;19921;-67
2021/12/21 16:09:34;;;;;;;;;;;;;;;;;;4980708;28;19925;-68
2021/12/21 16:11:59;;;;;;;;;;;;;;;;;;4973413;28;19925;-67
2021/12/21 16:14:25;;;;;;;;;;;;;;;;;;4974941;28;19953;-67
2021/12/21 16:16:52;;;;;;;;;;;;;;;;;;4977938;28;20359;-67
2021/12/21 16:19:17;;;;;;;;;;;;;;;;;;4975759;28;19944;-67
2021/12/21 16:21:42;;;;;;;;;;;;;;;;;;4978268;28;19921;-68
2021/12/21 16:24:07;;;;;;;;;;;;;;;;;;4973471;28;19976;-67
2021/12/21 16:26:33;;;;;;;;;;;;;;;;;;4973336;28;19921;-66
2021/12/21 16:28:58;;;;;;;;;;;;;;;;;;4981137;28;19925;-67
2021/12/21 16:31:23;;;;;;;;;;;;;;;;;;4974855;28;19930;-67
2021/12/21 16:33:48;;;;;;;;;;;;;;;;;;4980668;28;20360;-67
2021/12/21 16:36:14;;;;;;;;;;;;;;;;;;4977366;28;19952;-67
2021/12/21 16:38:39;;;;;;;;;;;;;;;;;;4976421;28;19917;-68
2021/12/21 16:41:04;;;;;;;;;;;;;;;;;;4985296;28;19921;-68
2021/12/21 16:43:33;;;;;;;;;;;;;;;;;;4979644;28;19924;-68
2021/12/21 16:45:58;;;;;;;;;;;;;;;;;;4982642;28;19972;-68
2021/12/21 16:48:24;;;;;;;;;;;;;;;;;;4979588;28;20000;-66
2021/12/21 16:50:49;;;;;;;;;;;;;;;;;;4978251;28;19988;-67
2021/12/21 16:53:14;;;;;;;;;;;;;;;;;;4983406;28;20020;-67
2021/12/21 16:55:39;;;;;;;;;;;;;;;;;;4978681;28;20294;-68
2021/12/21 16:58:05;;;;;;;;;;;;;;;;;;4998729;28;19918;-67
2021/12/21 17:00:31;;;;;;;;;;;;;;;;;;4979038;28;19987;-67
2021/12/21 17:02:56;;;;;;;;;;;;;;;;;;4977622;28;19921;-67
2021/12/21 17:05:21;;;;;;;;;;;;;;;;;;4998643;28;19917;-68
2021/12/21 17:07:49;;;;;;;;;;;;;;;;;;4977111;28;19968;-68
2021/12/21 17:10:16;;;;;;;;;;;;;;;;;;4984034;28;20230;-67
2021/12/21 17:12:41;;;;;;;;;;;;;;;;;;4974866;28;19921;-67
2021/12/21 17:15:06;;;;;;;;;;;;;;;;;;4977902;28;19918;-67
2021/12/21 17:17:31;;;;;;;;;;;;;;;;;;4982433;28;19922;-68
2021/12/21 17:19:56;;;;;;;;;;;;;;;;;;4975718;28;19918;-68
2021/12/21 17:22:22;;;;;;;;;;;;;;;;;;4982941;28;19921;-68
2021/12/21 17:24:47;;;;;;;;;;;;;;;;;;4971682;28;19921;-68
2021/12/21 17:27:12;;;;;;;;;;;;;;;;;;4975364;28;19925;-67
2021/12/21 17:29:37;;;;;;;;;;;;;;;;;;4980655;28;19918;-68
2021/12/21 17:32:03;;;;;;;;;;;;;;;;;;4989988;28;20449;-68
2021/12/21 17:34:28;;;;;;;;;;;;;;;;;;4980312;28;19942;-68